createdAt,value
2017-05-23T00:01:35.546Z,69.44
2017-05-23T00:04:01.897Z,69.08
2017-05-23T00:06:28.234Z,71.35
2017-05-23T00:08:54.573Z,69.33
2017-05-23T00:11:21.001Z,68.89
2017-05-23T00:13:47.383Z,70.91
2017-05-23T00:16:13.729Z,69.98
2017-05-23T00:18:40.077Z,70.24
2017-05-23T00:21:06.449Z,69.86
2017-05-23T00:23:32.826Z,69.28
2017-05-23T00:25:59.149Z,70.77
2017-05-23T00:28:25.489Z,68.72
2017-05-23T00:30:51.837Z,69.49
2017-05-23T00:33:18.162Z,66.02
2017-05-23T00:35:44.520Z,68.12
2017-05-23T00:38:10.844Z,68.46
2017-05-23T00:40:37.204Z,69.94
2017-05-23T00:43:03.596Z,64.87
2017-05-23T00:45:29.961Z,62.94
2017-05-23T00:47:56.278Z,63.58
2017-05-23T00:50:22.603Z,64.26
2017-05-23T00:52:48.983Z,64.23
2017-05-23T00:55:15.341Z,61.82
2017-05-23T00:57:41.652Z,62.20
2017-05-23T01:00:08.032Z,62.49
2017-05-23T01:02:34.432Z,59.12
2017-05-23T01:05:00.859Z,60.12
2017-05-23T01:07:34.382Z,59.38
2017-05-23T01:10:05.802Z,60.77
2017-05-23T01:12:38.292Z,60.05
2017-05-23T01:15:09.967Z,58.77
2017-05-23T01:17:41.547Z,60.15
2017-05-23T01:20:08.134Z,58.58
2017-05-23T01:22:34.604Z,61.36
2017-05-23T01:25:02.189Z,63.28
2017-05-23T01:27:28.642Z,64.26
2017-05-23T01:30:01.185Z,64.37
2017-05-23T01:32:28.808Z,62.63
2017-05-23T01:34:55.233Z,66.38
2017-05-23T01:37:22.040Z,65.68
2017-05-23T01:39:54.057Z,65.27
2017-05-23T01:42:20.591Z,64.30
2017-05-23T01:44:47.154Z,62.09
2017-05-23T01:47:13.739Z,61.84
2017-05-23T01:49:40.087Z,59.75
2017-05-23T01:52:06.721Z,61.84
2017-05-23T01:54:34.028Z,59.21
2017-05-23T01:57:01.452Z,58.07
2017-05-23T01:59:27.919Z,57.95
2017-05-23T02:01:55.958Z,58.30
2017-05-23T02:04:23.174Z,58.55
2017-05-23T02:06:51.050Z,60.17
2017-05-23T02:09:24.304Z,58.34
2017-05-23T02:11:50.775Z,57.57
2017-05-23T02:14:17.260Z,59.60
2017-05-23T02:16:45.005Z,58.55
2017-05-23T02:19:14.509Z,59.41
2017-05-23T02:21:46.308Z,59.23
2017-05-23T02:24:18.289Z,56.86
2017-05-23T02:26:50.030Z,59.95
2017-05-23T02:29:17.498Z,58.22
2017-05-23T02:31:43.933Z,58.73
2017-05-23T02:34:14.414Z,56.37
2017-05-23T02:36:45.786Z,56.58
2017-05-23T02:39:17.850Z,55.58
2017-05-23T02:41:44.239Z,56.00
2017-05-23T02:44:10.849Z,55.79
2017-05-23T02:46:37.290Z,55.30
2017-05-23T02:49:08.919Z,55.55
2017-05-23T02:51:35.382Z,56.01
2017-05-23T02:54:01.778Z,55.42
2017-05-23T02:56:29.198Z,54.89
2017-05-23T02:58:55.537Z,57.54
2017-05-23T03:01:23.138Z,57.96
2017-05-23T03:03:49.965Z,59.07
2017-05-23T03:06:21.670Z,60.03
2017-05-23T03:08:48.022Z,59.71
2017-05-23T03:11:19.951Z,60.16
2017-05-23T03:13:46.506Z,62.58
2017-05-23T03:16:18.914Z,61.56
2017-05-23T03:18:50.673Z,60.07
2017-05-23T03:21:22.271Z,59.75
2017-05-23T03:23:51.686Z,60.91
2017-05-23T03:26:18.557Z,63.97
2017-05-23T03:28:45.272Z,61.32
2017-05-23T03:31:15.619Z,64.35
2017-05-23T03:33:47.286Z,63.08
2017-05-23T03:36:14.409Z,65.04
2017-05-23T03:38:41.558Z,63.82
2017-05-23T03:41:13.363Z,61.79
2017-05-23T03:43:39.929Z,59.88
2017-05-23T03:46:12.924Z,64.47
2017-05-23T03:48:39.433Z,66.00
2017-05-23T03:51:10.982Z,61.47
2017-05-23T03:53:38.769Z,64.11
2017-05-23T03:56:10.270Z,61.24
2017-05-23T03:58:43.028Z,60.89
2017-05-23T04:01:10.077Z,60.47
2017-05-23T04:03:36.852Z,62.90
2017-05-23T04:06:03.157Z,60.21
2017-05-23T04:08:29.554Z,61.39
2017-05-23T04:10:56.298Z,60.92
2017-05-23T04:13:23.439Z,60.51
2017-05-23T04:15:53.034Z,60.03
2017-05-23T04:18:24.601Z,60.67
2017-05-23T04:20:56.509Z,63.78
2017-05-23T04:23:22.984Z,61.73
2017-05-23T04:25:50.781Z,61.71
2017-05-23T04:28:17.279Z,63.30
2017-05-23T04:30:44.049Z,61.75
2017-05-23T04:33:10.348Z,62.43
2017-05-23T04:35:45.823Z,62.41
2017-05-23T04:38:17.249Z,63.90
2017-05-23T04:40:43.681Z,63.29
2017-05-23T04:43:10.893Z,62.91
2017-05-23T04:45:42.773Z,63.07
2017-05-23T04:48:09.197Z,61.41
2017-05-23T04:50:38.725Z,63.45
2017-05-23T04:53:05.264Z,62.89
2017-05-23T04:55:31.821Z,62.26
2017-05-23T04:57:58.550Z,60.97
2017-05-23T05:00:25.981Z,65.06
2017-05-23T05:02:55.806Z,64.32
2017-05-23T05:05:22.297Z,62.62
2017-05-23T05:07:54.305Z,61.40
2017-05-23T05:10:25.893Z,60.70
2017-05-23T05:12:52.447Z,63.19
2017-05-23T05:15:19.549Z,62.01
2017-05-23T05:17:46.028Z,62.19
2017-05-23T05:20:12.873Z,61.55
2017-05-23T05:22:39.467Z,61.03
2017-05-23T05:25:07.297Z,60.56
2017-05-23T05:27:39.927Z,60.99
2017-05-23T05:30:06.259Z,60.60
2017-05-23T05:32:37.772Z,62.09
2017-05-23T05:35:04.791Z,60.97
2017-05-23T05:37:36.440Z,61.27
2017-05-23T05:40:02.862Z,60.81
2017-05-23T05:42:34.512Z,61.05
2017-05-23T05:45:00.979Z,61.17
2017-05-23T05:47:27.446Z,60.94
2017-05-23T05:49:53.905Z,61.12
2017-05-23T05:52:20.318Z,61.68
2017-05-23T05:54:50.062Z,62.45
2017-05-23T05:57:16.464Z,61.83
2017-05-23T05:59:55.518Z,60.70
2017-05-23T06:02:21.932Z,61.51
2017-05-23T06:04:48.697Z,61.30
2017-05-23T06:07:15.087Z,60.48
2017-05-23T06:09:48.146Z,61.26
2017-05-23T06:12:19.949Z,60.56
2017-05-23T06:14:48.357Z,60.63
2017-05-23T06:17:15.145Z,60.02
2017-05-23T06:19:47.611Z,60.16
2017-05-23T06:22:14.092Z,59.91
2017-05-23T06:24:40.563Z,60.37
2017-05-23T06:27:07.222Z,60.28
2017-05-23T06:29:33.889Z,59.54
2017-05-23T06:32:02.192Z,60.13
2017-05-23T06:34:28.742Z,60.28
2017-05-23T06:37:00.297Z,60.50
2017-05-23T06:39:27.533Z,59.39
2017-05-23T06:41:54.424Z,59.85
2017-05-23T06:44:26.033Z,58.95
2017-05-23T06:46:52.428Z,58.92
2017-05-23T06:49:18.911Z,58.18
2017-05-23T06:51:45.369Z,58.81
2017-05-23T06:54:12.094Z,59.13
2017-05-23T06:56:38.484Z,58.89
2017-05-23T06:59:11.174Z,58.01
2017-05-23T07:01:37.593Z,58.48
2017-05-23T07:04:11.435Z,56.45
2017-05-23T07:06:43.525Z,57.53
2017-05-23T07:09:10.946Z,56.79
2017-05-23T07:11:37.249Z,55.62
2017-05-23T07:14:03.891Z,55.93
2017-05-23T07:16:35.502Z,55.40
2017-05-23T07:19:02.327Z,56.35
2017-05-23T07:21:30.170Z,55.23
2017-05-23T07:24:00.492Z,54.15
2017-05-23T07:26:27.818Z,53.51
2017-05-23T07:28:54.147Z,55.65
2017-05-23T07:31:20.900Z,54.69
2017-05-23T07:33:47.219Z,54.84
2017-05-23T07:36:19.127Z,54.61
2017-05-23T07:38:52.259Z,54.63
2017-05-23T07:41:19.721Z,54.26
2017-05-23T07:43:47.085Z,54.04
2017-05-23T07:46:13.889Z,53.48
2017-05-23T07:48:45.723Z,53.21
2017-05-23T07:51:17.355Z,53.04
2017-05-23T07:53:48.273Z,53.50
2017-05-23T07:56:19.815Z,52.58
2017-05-23T07:58:52.345Z,50.74
2017-05-23T08:01:24.844Z,51.83
2017-05-23T08:03:51.249Z,51.07
2017-05-23T08:06:17.768Z,51.25
2017-05-23T08:08:49.194Z,51.11
2017-05-23T08:11:15.545Z,51.08
2017-05-23T08:13:47.898Z,50.08
2017-05-23T08:16:14.330Z,50.38
2017-05-23T08:18:40.998Z,48.96
2017-05-23T08:21:07.443Z,49.23
2017-05-23T08:23:38.917Z,49.73
2017-05-23T08:26:05.429Z,48.93
2017-05-23T08:28:39.784Z,48.35
2017-05-23T08:31:06.252Z,47.26
2017-05-23T08:33:37.941Z,47.43
2017-05-23T08:36:04.528Z,47.68
2017-05-23T08:38:31.961Z,47.17
2017-05-23T08:40:58.442Z,46.93
2017-05-23T08:43:28.290Z,46.45
2017-05-23T08:46:00.007Z,45.99
2017-05-23T08:48:30.460Z,46.43
2017-05-23T08:51:02.576Z,46.64
2017-05-23T08:53:34.380Z,47.17
2017-05-23T08:56:01.134Z,46.47
2017-05-23T08:58:27.808Z,46.78
2017-05-23T09:00:54.407Z,46.50
2017-05-23T09:03:20.745Z,46.76
2017-05-23T09:05:47.391Z,46.36
2017-05-23T09:08:16.987Z,45.76
2017-05-23T09:10:46.454Z,45.69
2017-05-23T09:13:16.597Z,44.83
2017-05-23T09:15:50.171Z,44.60
2017-05-23T09:18:19.581Z,44.78
2017-05-23T09:20:52.021Z,43.54
2017-05-23T09:23:18.382Z,44.08
2017-05-23T09:26:02.584Z,44.88
2017-05-23T09:28:29.222Z,42.89
2017-05-23T09:30:55.570Z,43.20
2017-05-23T09:33:21.927Z,44.00
2017-05-23T09:35:48.283Z,42.99
2017-05-23T09:38:14.615Z,42.93
2017-05-23T09:40:40.955Z,43.83
2017-05-23T09:43:07.265Z,41.79
2017-05-23T09:45:33.591Z,42.01
2017-05-23T09:47:59.909Z,42.64
2017-05-23T09:50:26.274Z,41.13
2017-05-23T09:52:52.602Z,42.86
2017-05-23T09:55:18.963Z,42.10
2017-05-23T09:57:45.299Z,40.92
2017-05-23T10:00:11.670Z,42.97
2017-05-23T10:02:38.001Z,40.26
2017-05-23T10:05:04.379Z,37.65
2017-05-23T10:07:30.710Z,39.09
2017-05-23T10:09:57.009Z,39.35
2017-05-23T10:12:23.303Z,35.70
2017-05-23T10:14:49.654Z,34.98
2017-05-23T10:17:15.969Z,36.68
2017-05-23T10:19:42.274Z,38.76
2017-05-23T10:22:08.603Z,39.16
2017-05-23T10:24:34.937Z,40.39
2017-05-23T10:27:01.249Z,37.31
2017-05-23T10:29:27.585Z,39.93
2017-05-23T10:31:53.925Z,39.07
2017-05-23T10:34:20.267Z,37.08
2017-05-23T10:36:46.591Z,36.74
2017-05-23T10:39:12.898Z,36.24
2017-05-23T10:41:39.224Z,36.07
2017-05-23T10:44:05.543Z,33.88
2017-05-23T10:46:31.851Z,34.70
2017-05-23T10:48:58.219Z,34.70
2017-05-23T10:51:24.552Z,34.54
2017-05-23T10:53:50.846Z,37.67
2017-05-23T10:56:17.181Z,37.11
2017-05-23T10:58:43.522Z,36.20
2017-05-23T11:01:09.842Z,35.91
2017-05-23T11:03:36.234Z,35.13
2017-05-23T11:06:02.562Z,36.17
2017-05-23T11:08:28.893Z,33.39
2017-05-23T11:10:55.229Z,34.17
2017-05-23T11:13:21.548Z,33.23
2017-05-23T11:15:47.883Z,32.27
2017-05-23T11:18:14.206Z,32.82
2017-05-23T11:20:40.524Z,34.64
2017-05-23T11:23:06.900Z,31.98
2017-05-23T11:25:33.202Z,34.01
2017-05-23T11:27:59.555Z,30.72
2017-05-23T11:30:25.895Z,29.75
2017-05-23T11:32:52.241Z,28.93
2017-05-23T11:35:18.589Z,31.17
2017-05-23T11:37:44.925Z,31.78
2017-05-23T11:40:11.253Z,29.73
2017-05-23T11:42:37.593Z,32.22
2017-05-23T11:45:03.938Z,30.33
2017-05-23T11:47:30.246Z,31.14
2017-05-23T11:49:56.562Z,32.71
2017-05-23T11:52:22.886Z,32.18
2017-05-23T11:54:49.243Z,32.87
2017-05-23T11:57:15.584Z,33.81
2017-05-23T11:59:41.900Z,33.47
2017-05-23T12:02:08.223Z,33.92
2017-05-23T12:04:34.556Z,35.35
2017-05-23T12:07:00.900Z,32.56
2017-05-23T12:09:27.233Z,34.72
2017-05-23T12:11:53.571Z,32.06
2017-05-23T12:14:19.900Z,30.77
2017-05-23T12:16:46.218Z,30.23
2017-05-23T12:19:12.534Z,29.98
2017-05-23T12:21:38.874Z,30.99
2017-05-23T12:24:05.190Z,32.40
2017-05-23T12:26:31.513Z,31.86
2017-05-23T12:28:57.829Z,31.20
2017-05-23T12:31:24.148Z,29.06
2017-05-23T12:33:50.480Z,29.17
2017-05-23T12:36:16.838Z,27.43
2017-05-23T12:38:43.159Z,30.58
2017-05-23T12:41:09.508Z,29.36
2017-05-23T12:43:35.841Z,29.79
2017-05-23T12:46:02.867Z,30.50
2017-05-23T12:48:29.230Z,30.42
2017-05-23T12:50:55.523Z,31.46
2017-05-23T12:53:21.929Z,32.63
2017-05-23T12:55:48.339Z,31.97
2017-05-23T12:58:14.650Z,31.25
2017-05-23T13:00:40.983Z,32.90
2017-05-23T13:03:07.296Z,32.96
2017-05-23T13:05:33.681Z,34.30
2017-05-23T13:08:00.003Z,32.87
2017-05-23T13:10:26.335Z,35.51
2017-05-23T13:12:52.663Z,34.91
2017-05-23T13:15:19.001Z,35.19
2017-05-23T13:17:45.375Z,34.15
2017-05-23T13:20:11.750Z,34.64
2017-05-23T13:22:38.071Z,33.38
2017-05-23T13:25:04.370Z,32.57
2017-05-23T13:27:30.711Z,35.14
2017-05-23T13:29:57.061Z,33.73
2017-05-23T13:32:23.371Z,33.11
2017-05-23T13:34:49.692Z,34.01
2017-05-23T13:37:16.018Z,33.54
2017-05-23T13:39:42.347Z,34.04
2017-05-23T13:42:08.701Z,33.69
2017-05-23T13:44:35.024Z,33.79
2017-05-23T13:47:01.338Z,34.57
2017-05-23T13:49:27.660Z,34.77
2017-05-23T13:51:53.981Z,34.25
2017-05-23T13:54:20.329Z,31.26
2017-05-23T13:56:46.661Z,31.98
2017-05-23T13:59:12.987Z,33.72
2017-05-23T14:01:39.299Z,33.55
2017-05-23T14:04:05.631Z,33.25
2017-05-23T14:06:31.983Z,31.98
2017-05-23T14:08:58.307Z,35.28
2017-05-23T14:11:24.649Z,35.60
2017-05-23T14:13:51.020Z,35.55
2017-05-23T14:16:17.334Z,36.27
2017-05-23T14:18:43.697Z,35.50
2017-05-23T14:21:10.031Z,35.75
2017-05-23T14:23:36.350Z,33.83
2017-05-23T14:26:02.655Z,34.83
2017-05-23T14:28:29.006Z,36.37
2017-05-23T14:30:55.327Z,35.17
2017-05-23T14:33:21.658Z,35.89
2017-05-23T14:35:48.031Z,37.19
2017-05-23T14:38:14.375Z,40.67
2017-05-23T14:40:40.694Z,40.66
2017-05-23T14:43:07.007Z,42.58
2017-05-23T14:45:33.350Z,42.13
2017-05-23T14:47:59.801Z,41.43
2017-05-23T14:50:26.126Z,42.57
2017-05-23T14:52:52.434Z,40.88
2017-05-23T14:55:18.753Z,42.24
2017-05-23T14:57:45.098Z,41.39
2017-05-23T15:00:11.417Z,41.36
2017-05-23T15:02:37.739Z,40.80
2017-05-23T15:05:04.089Z,41.18
2017-05-23T15:07:30.398Z,40.61
2017-05-23T15:09:56.742Z,40.44
2017-05-23T15:12:23.098Z,40.58
2017-05-23T15:14:49.423Z,42.09
2017-05-23T15:17:15.777Z,42.01
2017-05-23T15:19:42.147Z,42.12
2017-05-23T15:22:08.478Z,42.42
2017-05-23T15:24:34.802Z,42.07
2017-05-23T15:27:01.138Z,41.16
2017-05-23T15:29:27.472Z,41.83
2017-05-23T15:31:53.798Z,41.04
2017-05-23T15:34:20.130Z,40.57
2017-05-23T15:36:46.458Z,40.97
2017-05-23T15:39:12.796Z,39.55
2017-05-23T15:41:39.140Z,38.87
2017-05-23T15:44:05.494Z,40.03
2017-05-23T15:46:31.826Z,38.46
2017-05-23T15:48:58.201Z,38.63
2017-05-23T15:51:24.512Z,38.42
2017-05-23T15:53:50.841Z,37.29
2017-05-23T15:56:17.166Z,37.85
2017-05-23T15:58:43.471Z,39.11
2017-05-23T16:01:09.800Z,39.93
2017-05-23T16:03:36.133Z,41.30
2017-05-23T16:06:02.489Z,40.76
2017-05-23T16:08:28.832Z,39.15
2017-05-23T16:10:55.157Z,39.25
2017-05-23T16:13:21.519Z,40.34
2017-05-23T16:15:47.921Z,38.50
2017-05-23T16:18:14.267Z,38.85
2017-05-23T16:20:41.552Z,38.90
2017-05-23T16:23:08.423Z,38.68
2017-05-23T16:25:34.801Z,38.81
2017-05-23T16:28:01.119Z,38.82
2017-05-23T16:30:27.517Z,38.59
2017-05-23T16:32:53.861Z,38.02
2017-05-23T16:35:20.174Z,36.57
2017-05-23T16:37:46.526Z,38.33
2017-05-23T16:40:12.834Z,38.29
2017-05-23T16:42:39.209Z,38.88
2017-05-23T16:45:05.533Z,40.47
2017-05-23T16:47:31.859Z,38.99
2017-05-23T16:49:58.191Z,39.61
2017-05-23T16:52:24.529Z,40.86
2017-05-23T16:54:50.863Z,40.02
2017-05-23T16:57:17.193Z,39.38
2017-05-23T16:59:43.530Z,40.40
2017-05-23T17:02:09.838Z,40.95
2017-05-23T17:04:36.177Z,39.45
2017-05-23T17:07:02.541Z,39.70
2017-05-23T17:09:28.913Z,39.81
2017-05-23T17:11:55.254Z,41.63
2017-05-23T17:14:21.598Z,39.96
2017-05-23T17:16:47.938Z,39.18
2017-05-23T17:19:14.267Z,39.98
2017-05-23T17:21:40.588Z,39.55
2017-05-23T17:24:06.926Z,40.21
2017-05-23T17:26:33.273Z,40.00
2017-05-23T17:28:59.640Z,39.85
2017-05-23T17:31:25.993Z,39.47
2017-05-23T17:33:52.321Z,40.89
2017-05-23T17:36:18.660Z,40.02
2017-05-23T17:38:45.026Z,40.31
2017-05-23T17:41:11.347Z,39.19
2017-05-23T17:43:37.691Z,38.95
2017-05-23T17:46:04.010Z,39.98
2017-05-23T17:48:30.328Z,38.39
2017-05-23T17:50:56.657Z,38.46
2017-05-23T17:53:22.988Z,37.66
2017-05-23T17:55:49.306Z,36.49
2017-05-23T17:58:15.637Z,36.85
2017-05-23T18:00:41.947Z,36.40
2017-05-23T18:03:08.260Z,36.31
2017-05-23T18:05:34.615Z,34.93
2017-05-23T18:08:00.994Z,35.18
2017-05-23T18:10:27.342Z,35.53
2017-05-23T18:12:53.642Z,34.56
2017-05-23T18:15:19.989Z,34.92
2017-05-23T18:17:46.321Z,34.88
2017-05-23T18:20:12.634Z,36.03
2017-05-23T18:22:39.012Z,37.43
2017-05-23T18:25:05.334Z,37.92
2017-05-23T18:27:31.683Z,37.82
2017-05-23T18:29:58.029Z,38.24
2017-05-23T18:32:24.362Z,39.20
2017-05-23T18:34:50.783Z,39.54
2017-05-23T18:37:17.151Z,40.48
2017-05-23T18:39:44.156Z,41.11
2017-05-23T18:42:10.525Z,40.76
2017-05-23T18:44:36.902Z,40.23
2017-05-23T18:47:03.251Z,40.52
2017-05-23T18:49:29.606Z,40.23
2017-05-23T18:51:55.951Z,40.49
2017-05-23T18:54:22.286Z,41.37
2017-05-23T18:56:48.637Z,41.06
2017-05-23T18:59:14.982Z,39.37
2017-05-23T19:01:41.307Z,40.00
2017-05-23T19:04:07.658Z,39.81
2017-05-23T19:06:33.994Z,39.71
2017-05-23T19:09:00.622Z,40.30
2017-05-23T19:11:27.058Z,40.22
2017-05-23T19:13:53.571Z,38.48
2017-05-23T19:16:21.129Z,40.09
2017-05-23T19:18:47.545Z,39.03
2017-05-23T19:21:14.060Z,39.85
2017-05-23T19:23:40.476Z,38.90
2017-05-23T19:26:06.877Z,41.08
2017-05-23T19:28:33.211Z,42.24
2017-05-23T19:30:59.586Z,42.54
2017-05-23T19:33:25.941Z,44.12
2017-05-23T19:35:52.286Z,44.19
2017-05-23T19:38:18.637Z,44.85
2017-05-23T19:40:44.984Z,45.04
2017-05-23T19:43:11.396Z,45.21
2017-05-23T19:45:37.736Z,44.84
2017-05-23T19:48:04.195Z,45.96
2017-05-23T19:50:30.952Z,44.79
2017-05-23T19:52:57.476Z,44.54
2017-05-23T19:55:25.266Z,44.56
2017-05-23T19:57:53.140Z,44.82
